sensor_id;sensor_type;location;lat;lon;timestamp;temperature;humidity
3067;DHT22;1544;48.834;9.194;2023-04-25T00:00:06;10.70;34.60
3067;DHT22;1544;48.834;9.194;2023-04-25T00:02:46;10.70;34.70
3067;DHT22;1544;48.834;9.194;2023-04-25T00:05:23;10.70;34.80
3067;DHT22;1544;48.834;9.194;2023-04-25T00:07:59;10.60;34.90
3067;DHT22;1544;48.834;9.194;2023-04-25T00:10:35;10.60;35.40
3067;DHT22;1544;48.834;9.194;2023-04-25T00:13:11;10.60;35.50
3067;DHT22;1544;48.834;9.194;2023-04-25T00:15:47;10.50;35.40
3067;DHT22;1544;48.834;9.194;2023-04-25T00:18:23;10.50;35.40
3067;DHT22;1544;48.834;9.194;2023-04-25T00:21:00;10.50;35.50
3067;DHT22;1544;48.834;9.194;2023-04-25T00:23:36;10.50;35.60
3067;DHT22;1544;48.834;9.194;2023-04-25T00:26:12;10.50;35.70
3067;DHT22;1544;48.834;9.194;2023-04-25T00:28:48;10.50;35.50
3067;DHT22;1544;48.834;9.194;2023-04-25T00:31:24;10.60;35.40
3067;DHT22;1544;48.834;9.194;2023-04-25T00:34:00;10.60;35.40
3067;DHT22;1544;48.834;9.194;2023-04-25T00:36:36;10.50;35.40
3067;DHT22;1544;48.834;9.194;2023-04-25T00:39:12;10.60;35.50
3067;DHT22;1544;48.834;9.194;2023-04-25T00:41:48;10.60;35.60
3067;DHT22;1544;48.834;9.194;2023-04-25T00:44:31;10.60;35.50
3067;DHT22;1544;48.834;9.194;2023-04-25T00:47:08;10.60;35.50
3067;DHT22;1544;48.834;9.194;2023-04-25T00:49:44;10.60;35.50
3067;DHT22;1544;48.834;9.194;2023-04-25T00:52:20;10.60;35.50
3067;DHT22;1544;48.834;9.194;2023-04-25T00:54:56;10.60;35.50
3067;DHT22;1544;48.834;9.194;2023-04-25T00:57:32;10.60;35.30
3067;DHT22;1544;48.834;9.194;2023-04-25T01:00:09;10.60;35.40
3067;DHT22;1544;48.834;9.194;2023-04-25T01:02:47;10.50;35.30
3067;DHT22;1544;48.834;9.194;2023-04-25T01:05:23;10.50;35.40
3067;DHT22;1544;48.834;9.194;2023-04-25T01:07:59;10.50;35.40
3067;DHT22;1544;48.834;9.194;2023-04-25T01:10:36;10.50;35.50
3067;DHT22;1544;48.834;9.194;2023-04-25T01:13:12;10.50;35.40
3067;DHT22;1544;48.834;9.194;2023-04-25T01:15:48;10.50;35.60
3067;DHT22;1544;48.834;9.194;2023-04-25T01:18:24;10.60;35.60
3067;DHT22;1544;48.834;9.194;2023-04-25T01:21:11;10.50;35.50
3067;DHT22;1544;48.834;9.194;2023-04-25T01:23:49;10.50;35.60
3067;DHT22;1544;48.834;9.194;2023-04-25T01:26:26;10.50;35.50
3067;DHT22;1544;48.834;9.194;2023-04-25T01:29:04;10.50;35.40
3067;DHT22;1544;48.834;9.194;2023-04-25T01:31:40;10.40;35.50
3067;DHT22;1544;48.834;9.194;2023-04-25T01:34:17;10.40;35.50
3067;DHT22;1544;48.834;9.194;2023-04-25T01:36:53;10.30;35.50
3067;DHT22;1544;48.834;9.194;2023-04-25T01:39:30;10.30;35.60
3067;DHT22;1544;48.834;9.194;2023-04-25T01:42:07;10.20;35.70
3067;DHT22;1544;48.834;9.194;2023-04-25T01:44:44;10.20;35.80
3067;DHT22;1544;48.834;9.194;2023-04-25T01:47:20;10.20;35.80
3067;DHT22;1544;48.834;9.194;2023-04-25T01:49:56;10.20;35.80
3067;DHT22;1544;48.834;9.194;2023-04-25T01:52:32;10.20;35.80
3067;DHT22;1544;48.834;9.194;2023-04-25T01:55:09;10.20;35.90
3067;DHT22;1544;48.834;9.194;2023-04-25T01:57:49;10.30;35.90
3067;DHT22;1544;48.834;9.194;2023-04-25T02:00:27;10.30;35.90
3067;DHT22;1544;48.834;9.194;2023-04-25T02:03:03;10.30;35.90
3067;DHT22;1544;48.834;9.194;2023-04-25T02:05:41;10.30;36.00
3067;DHT22;1544;48.834;9.194;2023-04-25T02:08:20;10.20;36.00
3067;DHT22;1544;48.834;9.194;2023-04-25T02:10:56;10.20;36.00
3067;DHT22;1544;48.834;9.194;2023-04-25T02:13:38;10.30;36.10
3067;DHT22;1544;48.834;9.194;2023-04-25T02:16:46;10.30;36.00
3067;DHT22;1544;48.834;9.194;2023-04-25T02:19:23;10.30;35.80
3067;DHT22;1544;48.834;9.194;2023-04-25T02:21:58;10.20;35.90
3067;DHT22;1544;48.834;9.194;2023-04-25T02:24:35;10.20;36.00
3067;DHT22;1544;48.834;9.194;2023-04-25T02:27:11;10.20;36.40
3067;DHT22;1544;48.834;9.194;2023-04-25T02:29:47;10.20;36.50
3067;DHT22;1544;48.834;9.194;2023-04-25T02:32:23;10.30;36.40
3067;DHT22;1544;48.834;9.194;2023-04-25T02:35:00;10.30;36.40
3067;DHT22;1544;48.834;9.194;2023-04-25T02:37:40;10.30;36.50
3067;DHT22;1544;48.834;9.194;2023-04-25T02:40:16;10.20;36.70
3067;DHT22;1544;48.834;9.194;2023-04-25T02:42:51;10.20;36.70
3067;DHT22;1544;48.834;9.194;2023-04-25T02:45:27;10.20;36.80
3067;DHT22;1544;48.834;9.194;2023-04-25T02:48:04;10.20;36.90
3067;DHT22;1544;48.834;9.194;2023-04-25T02:50:40;10.20;36.90
3067;DHT22;1544;48.834;9.194;2023-04-25T02:53:16;10.20;36.90
3067;DHT22;1544;48.834;9.194;2023-04-25T02:55:56;10.20;37.00
3067;DHT22;1544;48.834;9.194;2023-04-25T02:58:34;10.20;37.00
3067;DHT22;1544;48.834;9.194;2023-04-25T03:01:10;10.20;37.10
3067;DHT22;1544;48.834;9.194;2023-04-25T03:03:46;10.10;37.20
3067;DHT22;1544;48.834;9.194;2023-04-25T03:06:22;10.10;37.30
3067;DHT22;1544;48.834;9.194;2023-04-25T03:08:58;10.20;37.50
3067;DHT22;1544;48.834;9.194;2023-04-25T03:11:34;10.20;37.70
3067;DHT22;1544;48.834;9.194;2023-04-25T03:14:11;10.10;37.80
3067;DHT22;1544;48.834;9.194;2023-04-25T03:16:48;10.20;38.10
3067;DHT22;1544;48.834;9.194;2023-04-25T03:19:25;10.20;38.30
3067;DHT22;1544;48.834;9.194;2023-04-25T03:22:01;10.10;38.60
3067;DHT22;1544;48.834;9.194;2023-04-25T03:24:37;10.10;38.40
3067;DHT22;1544;48.834;9.194;2023-04-25T03:27:13;10.10;38.60
3067;DHT22;1544;48.834;9.194;2023-04-25T03:29:49;10.10;38.70
3067;DHT22;1544;48.834;9.194;2023-04-25T03:32:25;10.10;38.50
3067;DHT22;1544;48.834;9.194;2023-04-25T03:35:01;10.00;38.40
3067;DHT22;1544;48.834;9.194;2023-04-25T03:37:41;10.00;38.40
3067;DHT22;1544;48.834;9.194;2023-04-25T03:40:25;10.00;38.70
3067;DHT22;1544;48.834;9.194;2023-04-25T03:43:24;9.90;39.30
3067;DHT22;1544;48.834;9.194;2023-04-25T03:46:06;9.90;39.60
3067;DHT22;1544;48.834;9.194;2023-04-25T03:48:43;9.90;39.60
3067;DHT22;1544;48.834;9.194;2023-04-25T03:51:26;9.90;39.30
3067;DHT22;1544;48.834;9.194;2023-04-25T03:54:02;9.90;39.30
3067;DHT22;1544;48.834;9.194;2023-04-25T03:57:10;9.90;39.40
3067;DHT22;1544;48.834;9.194;2023-04-25T03:59:47;9.80;39.60
3067;DHT22;1544;48.834;9.194;2023-04-25T04:02:25;9.90;39.70
3067;DHT22;1544;48.834;9.194;2023-04-25T04:05:02;9.90;39.30
3067;DHT22;1544;48.834;9.194;2023-04-25T04:07:39;9.90;39.50
3067;DHT22;1544;48.834;9.194;2023-04-25T04:10:19;9.80;39.40
3067;DHT22;1544;48.834;9.194;2023-04-25T04:12:56;9.80;39.10
3067;DHT22;1544;48.834;9.194;2023-04-25T04:15:32;9.80;39.00
3067;DHT22;1544;48.834;9.194;2023-04-25T04:18:09;9.80;39.00
3067;DHT22;1544;48.834;9.194;2023-04-25T04:20:46;9.80;39.00
3067;DHT22;1544;48.834;9.194;2023-04-25T04:23:22;9.80;39.20
3067;DHT22;1544;48.834;9.194;2023-04-25T04:25:59;9.80;39.20
3067;DHT22;1544;48.834;9.194;2023-04-25T04:28:55;9.80;39.10
3067;DHT22;1544;48.834;9.194;2023-04-25T04:31:41;9.80;39.00
3067;DHT22;1544;48.834;9.194;2023-04-25T04:34:17;9.80;39.00
3067;DHT22;1544;48.834;9.194;2023-04-25T04:36:54;9.80;39.00
3067;DHT22;1544;48.834;9.194;2023-04-25T04:39:30;9.90;39.00
3067;DHT22;1544;48.834;9.194;2023-04-25T04:42:15;9.90;39.00
3067;DHT22;1544;48.834;9.194;2023-04-25T04:45:02;9.90;39.10
3067;DHT22;1544;48.834;9.194;2023-04-25T04:47:53;9.90;39.10
3067;DHT22;1544;48.834;9.194;2023-04-25T04:51:03;9.90;39.20
3067;DHT22;1544;48.834;9.194;2023-04-25T04:53:54;9.90;39.20
3067;DHT22;1544;48.834;9.194;2023-04-25T04:56:52;9.90;39.40
3067;DHT22;1544;48.834;9.194;2023-04-25T04:59:59;9.90;39.50
3067;DHT22;1544;48.834;9.194;2023-04-25T05:02:55;9.80;39.50
3067;DHT22;1544;48.834;9.194;2023-04-25T05:05:39;9.90;39.40
3067;DHT22;1544;48.834;9.194;2023-04-25T05:08:19;10.00;38.50
3067;DHT22;1544;48.834;9.194;2023-04-25T05:11:24;10.00;38.60
3067;DHT22;1544;48.834;9.194;2023-04-25T05:14:19;10.10;38.50
3067;DHT22;1544;48.834;9.194;2023-04-25T05:17:13;10.10;38.30
3067;DHT22;1544;48.834;9.194;2023-04-25T05:20:09;10.10;38.30
3067;DHT22;1544;48.834;9.194;2023-04-25T05:23:05;10.10;38.30
3067;DHT22;1544;48.834;9.194;2023-04-25T05:26:02;10.20;38.40
3067;DHT22;1544;48.834;9.194;2023-04-25T05:28:47;10.30;38.20
3067;DHT22;1544;48.834;9.194;2023-04-25T05:31:42;10.40;38.20
3067;DHT22;1544;48.834;9.194;2023-04-25T05:34:21;10.40;38.50
3067;DHT22;1544;48.834;9.194;2023-04-25T05:37:03;10.40;38.80
3067;DHT22;1544;48.834;9.194;2023-04-25T05:39:41;10.40;38.60
3067;DHT22;1544;48.834;9.194;2023-04-25T05:42:23;10.30;39.40
3067;DHT22;1544;48.834;9.194;2023-04-25T05:45:13;10.20;41.00
3067;DHT22;1544;48.834;9.194;2023-04-25T05:48:07;10.00;44.00
3067;DHT22;1544;48.834;9.194;2023-04-25T05:51:07;9.90;47.40
3067;DHT22;1544;48.834;9.194;2023-04-25T05:54:07;9.90;48.20
3067;DHT22;1544;48.834;9.194;2023-04-25T05:56:45;9.80;46.50
3067;DHT22;1544;48.834;9.194;2023-04-25T05:59:21;9.70;45.40
3067;DHT22;1544;48.834;9.194;2023-04-25T06:01:59;9.70;45.30
3067;DHT22;1544;48.834;9.194;2023-04-25T06:04:37;9.70;45.80
3067;DHT22;1544;48.834;9.194;2023-04-25T06:07:15;9.70;46.40
3067;DHT22;1544;48.834;9.194;2023-04-25T06:09:51;9.70;46.60
3067;DHT22;1544;48.834;9.194;2023-04-25T06:12:28;9.80;45.90
3067;DHT22;1544;48.834;9.194;2023-04-25T06:15:07;9.80;45.50
3067;DHT22;1544;48.834;9.194;2023-04-25T06:18:02;9.90;45.10
3067;DHT22;1544;48.834;9.194;2023-04-25T06:20:39;10.00;42.90
3067;DHT22;1544;48.834;9.194;2023-04-25T06:23:15;10.10;44.30
3067;DHT22;1544;48.834;9.194;2023-04-25T06:26:00;10.20;44.00
3067;DHT22;1544;48.834;9.194;2023-04-25T06:28:38;10.40;42.60
3067;DHT22;1544;48.834;9.194;2023-04-25T06:31:16;10.50;42.90
3067;DHT22;1544;48.834;9.194;2023-04-25T06:33:56;10.70;42.30
3067;DHT22;1544;48.834;9.194;2023-04-25T06:36:34;10.90;41.80
3067;DHT22;1544;48.834;9.194;2023-04-25T06:39:15;11.00;41.40
3067;DHT22;1544;48.834;9.194;2023-04-25T06:41:51;11.30;41.40
3067;DHT22;1544;48.834;9.194;2023-04-25T06:44:45;11.40;39.40
3067;DHT22;1544;48.834;9.194;2023-04-25T06:47:24;11.50;38.60
3067;DHT22;1544;48.834;9.194;2023-04-25T06:50:00;11.60;37.70
3067;DHT22;1544;48.834;9.194;2023-04-25T06:52:36;11.70;38.40
3067;DHT22;1544;48.834;9.194;2023-04-25T06:55:15;11.80;37.40
3067;DHT22;1544;48.834;9.194;2023-04-25T06:58:20;11.80;37.30
3067;DHT22;1544;48.834;9.194;2023-04-25T07:00:59;11.80;36.90
3067;DHT22;1544;48.834;9.194;2023-04-25T07:03:35;11.80;36.80
3067;DHT22;1544;48.834;9.194;2023-04-25T07:06:20;11.90;37.00
3067;DHT22;1544;48.834;9.194;2023-04-25T07:08:56;11.80;37.20
3067;DHT22;1544;48.834;9.194;2023-04-25T07:11:32;11.80;37.00
3067;DHT22;1544;48.834;9.194;2023-04-25T07:14:08;11.80;37.10
3067;DHT22;1544;48.834;9.194;2023-04-25T07:16:44;11.80;37.00
3067;DHT22;1544;48.834;9.194;2023-04-25T07:19:21;11.80;37.80
3067;DHT22;1544;48.834;9.194;2023-04-25T07:22:00;11.70;38.20
3067;DHT22;1544;48.834;9.194;2023-04-25T07:24:39;11.70;37.20
3067;DHT22;1544;48.834;9.194;2023-04-25T07:27:18;11.60;36.70
3067;DHT22;1544;48.834;9.194;2023-04-25T07:30:10;11.50;36.90
3067;DHT22;1544;48.834;9.194;2023-04-25T07:32:47;11.40;37.00
3067;DHT22;1544;48.834;9.194;2023-04-25T07:35:25;11.40;37.10
3067;DHT22;1544;48.834;9.194;2023-04-25T07:38:02;11.30;37.30
3067;DHT22;1544;48.834;9.194;2023-04-25T07:40:40;11.40;37.70
3067;DHT22;1544;48.834;9.194;2023-04-25T07:43:19;11.40;37.50
3067;DHT22;1544;48.834;9.194;2023-04-25T07:46:02;11.30;37.30
3067;DHT22;1544;48.834;9.194;2023-04-25T07:48:42;11.30;37.40
3067;DHT22;1544;48.834;9.194;2023-04-25T07:51:18;11.20;37.70
3067;DHT22;1544;48.834;9.194;2023-04-25T07:53:56;11.20;38.00
3067;DHT22;1544;48.834;9.194;2023-04-25T07:56:33;11.10;38.70
3067;DHT22;1544;48.834;9.194;2023-04-25T07:59:27;11.10;39.30
3067;DHT22;1544;48.834;9.194;2023-04-25T08:02:06;11.10;40.10
3067;DHT22;1544;48.834;9.194;2023-04-25T08:04:42;11.20;40.80
3067;DHT22;1544;48.834;9.194;2023-04-25T08:07:20;11.30;39.60
3067;DHT22;1544;48.834;9.194;2023-04-25T08:10:02;11.40;39.40
3067;DHT22;1544;48.834;9.194;2023-04-25T08:12:41;11.40;40.00
3067;DHT22;1544;48.834;9.194;2023-04-25T08:15:18;11.60;39.40
3067;DHT22;1544;48.834;9.194;2023-04-25T08:17:54;11.70;39.30
3067;DHT22;1544;48.834;9.194;2023-04-25T08:20:31;11.70;38.80
3067;DHT22;1544;48.834;9.194;2023-04-25T08:23:10;11.60;38.80
3067;DHT22;1544;48.834;9.194;2023-04-25T08:26:00;11.60;39.00
3067;DHT22;1544;48.834;9.194;2023-04-25T08:28:38;11.50;38.90
3067;DHT22;1544;48.834;9.194;2023-04-25T08:31:16;11.30;39.10
3067;DHT22;1544;48.834;9.194;2023-04-25T08:34:02;11.20;39.20
3067;DHT22;1544;48.834;9.194;2023-04-25T08:36:50;11.10;39.80
3067;DHT22;1544;48.834;9.194;2023-04-25T08:39:33;11.00;40.20
3067;DHT22;1544;48.834;9.194;2023-04-25T08:42:34;10.90;40.40
3067;DHT22;1544;48.834;9.194;2023-04-25T08:45:13;10.90;41.70
3067;DHT22;1544;48.834;9.194;2023-04-25T08:47:52;10.90;42.90
3067;DHT22;1544;48.834;9.194;2023-04-25T08:50:29;10.80;44.00
3067;DHT22;1544;48.834;9.194;2023-04-25T08:53:09;10.90;43.90
3067;DHT22;1544;48.834;9.194;2023-04-25T08:55:46;10.90;44.00
3067;DHT22;1544;48.834;9.194;2023-04-25T08:58:23;10.90;44.60
3067;DHT22;1544;48.834;9.194;2023-04-25T09:00:59;10.90;45.00
3067;DHT22;1544;48.834;9.194;2023-04-25T09:03:39;10.80;44.80
3067;DHT22;1544;48.834;9.194;2023-04-25T09:06:17;10.80;45.10
3067;DHT22;1544;48.834;9.194;2023-04-25T09:08:53;10.80;45.90
3067;DHT22;1544;48.834;9.194;2023-04-25T09:11:32;10.80;46.20
3067;DHT22;1544;48.834;9.194;2023-04-25T09:14:19;10.80;46.80
3067;DHT22;1544;48.834;9.194;2023-04-25T09:17:22;10.70;48.10
3067;DHT22;1544;48.834;9.194;2023-04-25T09:20:14;10.50;49.30
3067;DHT22;1544;48.834;9.194;2023-04-25T09:23:11;10.50;49.60
3067;DHT22;1544;48.834;9.194;2023-04-25T09:25:49;10.40;48.70
3067;DHT22;1544;48.834;9.194;2023-04-25T09:28:27;10.30;49.60
3067;DHT22;1544;48.834;9.194;2023-04-25T09:31:10;10.30;50.20
3067;DHT22;1544;48.834;9.194;2023-04-25T09:34:00;10.30;51.50
3067;DHT22;1544;48.834;9.194;2023-04-25T09:36:50;10.30;51.90
3067;DHT22;1544;48.834;9.194;2023-04-25T09:39:45;10.30;52.20
3067;DHT22;1544;48.834;9.194;2023-04-25T09:42:25;10.30;52.70
3067;DHT22;1544;48.834;9.194;2023-04-25T09:45:03;10.30;52.40
3067;DHT22;1544;48.834;9.194;2023-04-25T09:47:45;10.40;52.00
3067;DHT22;1544;48.834;9.194;2023-04-25T09:50:28;10.30;52.40
3067;DHT22;1544;48.834;9.194;2023-04-25T09:53:14;10.20;54.30
3067;DHT22;1544;48.834;9.194;2023-04-25T09:56:09;10.00;57.00
3067;DHT22;1544;48.834;9.194;2023-04-25T09:58:47;10.00;59.00
3067;DHT22;1544;48.834;9.194;2023-04-25T10:01:26;10.00;60.40
3067;DHT22;1544;48.834;9.194;2023-04-25T10:04:19;10.00;62.50
3067;DHT22;1544;48.834;9.194;2023-04-25T10:07:07;10.00;63.50
3067;DHT22;1544;48.834;9.194;2023-04-25T10:09:48;10.00;63.00
3067;DHT22;1544;48.834;9.194;2023-04-25T10:12:26;10.00;60.10
3067;DHT22;1544;48.834;9.194;2023-04-25T10:15:04;9.90;56.90
3067;DHT22;1544;48.834;9.194;2023-04-25T10:17:41;9.80;57.00
3067;DHT22;1544;48.834;9.194;2023-04-25T10:20:18;9.60;59.70
3067;DHT22;1544;48.834;9.194;2023-04-25T10:23:07;9.40;62.40
3067;DHT22;1544;48.834;9.194;2023-04-25T10:25:51;9.20;64.90
3067;DHT22;1544;48.834;9.194;2023-04-25T10:28:28;9.00;67.00
3067;DHT22;1544;48.834;9.194;2023-04-25T10:31:07;8.90;67.40
3067;DHT22;1544;48.834;9.194;2023-04-25T10:33:44;8.90;69.20
3067;DHT22;1544;48.834;9.194;2023-04-25T10:36:22;8.90;68.50
3067;DHT22;1544;48.834;9.194;2023-04-25T10:39:05;8.80;68.40
3067;DHT22;1544;48.834;9.194;2023-04-25T10:41:57;8.80;68.90
3067;DHT22;1544;48.834;9.194;2023-04-25T10:44:33;8.70;71.40
3067;DHT22;1544;48.834;9.194;2023-04-25T10:47:10;8.70;73.40
3067;DHT22;1544;48.834;9.194;2023-04-25T10:49:50;8.60;75.20
3067;DHT22;1544;48.834;9.194;2023-04-25T10:52:28;8.70;76.80
3067;DHT22;1544;48.834;9.194;2023-04-25T10:55:05;8.70;77.90
3067;DHT22;1544;48.834;9.194;2023-04-25T10:57:44;8.70;77.40
3067;DHT22;1544;48.834;9.194;2023-04-25T11:00:23;8.60;77.10
3067;DHT22;1544;48.834;9.194;2023-04-25T11:03:22;8.50;77.70
3067;DHT22;1544;48.834;9.194;2023-04-25T11:06:01;8.60;78.30
3067;DHT22;1544;48.834;9.194;2023-04-25T11:08:49;8.60;78.40
3067;DHT22;1544;48.834;9.194;2023-04-25T11:11:28;8.70;79.00
3067;DHT22;1544;48.834;9.194;2023-04-25T11:14:06;8.90;79.10
3067;DHT22;1544;48.834;9.194;2023-04-25T11:16:42;8.90;78.70
3067;DHT22;1544;48.834;9.194;2023-04-25T11:19:20;9.00;78.20
3067;DHT22;1544;48.834;9.194;2023-04-25T11:21:56;9.10;77.90
3067;DHT22;1544;48.834;9.194;2023-04-25T11:24:34;9.20;75.60
3067;DHT22;1544;48.834;9.194;2023-04-25T11:27:12;9.40;70.60
3067;DHT22;1544;48.834;9.194;2023-04-25T11:29:48;9.50;70.70
3067;DHT22;1544;48.834;9.194;2023-04-25T11:32:24;9.50;70.50
3067;DHT22;1544;48.834;9.194;2023-04-25T11:35:02;9.60;69.90
3067;DHT22;1544;48.834;9.194;2023-04-25T11:37:39;9.70;67.80
3067;DHT22;1544;48.834;9.194;2023-04-25T11:40:15;9.80;62.40
3067;DHT22;1544;48.834;9.194;2023-04-25T11:42:52;9.90;60.80
3067;DHT22;1544;48.834;9.194;2023-04-25T11:45:29;10.00;62.10
3067;DHT22;1544;48.834;9.194;2023-04-25T11:48:08;10.00;64.60
3067;DHT22;1544;48.834;9.194;2023-04-25T11:50:45;10.10;60.40
3067;DHT22;1544;48.834;9.194;2023-04-25T11:53:21;10.30;57.50
3067;DHT22;1544;48.834;9.194;2023-04-25T11:55:57;10.40;55.20
3067;DHT22;1544;48.834;9.194;2023-04-25T11:58:54;10.50;53.50
3067;DHT22;1544;48.834;9.194;2023-04-25T12:01:35;10.50;55.50
3067;DHT22;1544;48.834;9.194;2023-04-25T12:04:18;10.60;54.00
3067;DHT22;1544;48.834;9.194;2023-04-25T12:06:56;10.60;51.10
3067;DHT22;1544;48.834;9.194;2023-04-25T12:09:33;10.50;52.50
3067;DHT22;1544;48.834;9.194;2023-04-25T12:12:11;10.50;51.70
3067;DHT22;1544;48.834;9.194;2023-04-25T12:14:47;10.40;51.60
3067;DHT22;1544;48.834;9.194;2023-04-25T12:17:26;10.30;50.90
3067;DHT22;1544;48.834;9.194;2023-04-25T12:20:13;10.30;51.70
3067;DHT22;1544;48.834;9.194;2023-04-25T12:22:51;10.20;51.70
3067;DHT22;1544;48.834;9.194;2023-04-25T12:25:39;10.10;52.10
3067;DHT22;1544;48.834;9.194;2023-04-25T12:28:25;10.10;48.70
3067;DHT22;1544;48.834;9.194;2023-04-25T12:31:06;10.10;48.90
3067;DHT22;1544;48.834;9.194;2023-04-25T12:33:44;10.20;51.00
3067;DHT22;1544;48.834;9.194;2023-04-25T12:36:23;10.40;49.80
3067;DHT22;1544;48.834;9.194;2023-04-25T12:38:59;10.60;50.40
3067;DHT22;1544;48.834;9.194;2023-04-25T12:41:39;10.80;50.90
3067;DHT22;1544;48.834;9.194;2023-04-25T12:44:16;11.10;49.50
3067;DHT22;1544;48.834;9.194;2023-04-25T12:46:52;11.40;50.10
3067;DHT22;1544;48.834;9.194;2023-04-25T12:49:31;11.90;49.70
3067;DHT22;1544;48.834;9.194;2023-04-25T12:52:08;12.50;45.50
3067;DHT22;1544;48.834;9.194;2023-04-25T12:54:44;13.00;43.20
3067;DHT22;1544;48.834;9.194;2023-04-25T12:57:20;13.20;40.00
3067;DHT22;1544;48.834;9.194;2023-04-25T12:59:56;13.40;39.00
3067;DHT22;1544;48.834;9.194;2023-04-25T13:02:33;13.50;39.10
3067;DHT22;1544;48.834;9.194;2023-04-25T13:05:10;13.60;39.10
3067;DHT22;1544;48.834;9.194;2023-04-25T13:07:47;13.70;39.90
3067;DHT22;1544;48.834;9.194;2023-04-25T13:10:23;13.70;38.80
3067;DHT22;1544;48.834;9.194;2023-04-25T13:12:59;13.50;38.60
3067;DHT22;1544;48.834;9.194;2023-04-25T13:15:36;13.50;38.20
3067;DHT22;1544;48.834;9.194;2023-04-25T13:18:13;13.60;37.80
3067;DHT22;1544;48.834;9.194;2023-04-25T13:20:49;13.60;37.20
3067;DHT22;1544;48.834;9.194;2023-04-25T13:23:26;13.70;37.40
3067;DHT22;1544;48.834;9.194;2023-04-25T13:26:03;13.80;36.20
3067;DHT22;1544;48.834;9.194;2023-04-25T13:28:41;13.80;36.40
3067;DHT22;1544;48.834;9.194;2023-04-25T13:31:19;13.70;35.50
3067;DHT22;1544;48.834;9.194;2023-04-25T13:33:55;13.60;38.10
3067;DHT22;1544;48.834;9.194;2023-04-25T13:36:31;13.50;36.40
3067;DHT22;1544;48.834;9.194;2023-04-25T13:39:07;13.40;36.00
3067;DHT22;1544;48.834;9.194;2023-04-25T13:41:43;13.40;36.20
3067;DHT22;1544;48.834;9.194;2023-04-25T13:44:20;13.40;36.20
3067;DHT22;1544;48.834;9.194;2023-04-25T13:46:57;13.40;36.50
3067;DHT22;1544;48.834;9.194;2023-04-25T13:49:33;13.50;37.00
3067;DHT22;1544;48.834;9.194;2023-04-25T13:52:09;13.70;36.40
3067;DHT22;1544;48.834;9.194;2023-04-25T13:54:46;13.90;35.90
3067;DHT22;1544;48.834;9.194;2023-04-25T13:57:22;13.90;35.20
3067;DHT22;1544;48.834;9.194;2023-04-25T13:59:59;13.80;35.20
3067;DHT22;1544;48.834;9.194;2023-04-25T14:02:41;13.90;35.60
3067;DHT22;1544;48.834;9.194;2023-04-25T14:05:17;14.10;37.10
3067;DHT22;1544;48.834;9.194;2023-04-25T14:07:53;14.40;35.90
3067;DHT22;1544;48.834;9.194;2023-04-25T14:10:29;14.70;34.90
3067;DHT22;1544;48.834;9.194;2023-04-25T14:13:05;14.90;34.40
3067;DHT22;1544;48.834;9.194;2023-04-25T14:15:44;15.00;34.50
3067;DHT22;1544;48.834;9.194;2023-04-25T14:18:20;15.10;33.40
3067;DHT22;1544;48.834;9.194;2023-04-25T14:20:55;15.10;33.20
3067;DHT22;1544;48.834;9.194;2023-04-25T14:23:33;15.20;32.80
3067;DHT22;1544;48.834;9.194;2023-04-25T14:26:11;15.50;33.00
3067;DHT22;1544;48.834;9.194;2023-04-25T14:28:48;15.80;32.90
3067;DHT22;1544;48.834;9.194;2023-04-25T14:31:24;15.90;32.70
3067;DHT22;1544;48.834;9.194;2023-04-25T14:34:03;15.80;31.70
3067;DHT22;1544;48.834;9.194;2023-04-25T14:36:39;15.60;31.00
3067;DHT22;1544;48.834;9.194;2023-04-25T14:39:15;15.40;32.80
3067;DHT22;1544;48.834;9.194;2023-04-25T14:41:53;15.50;32.40
3067;DHT22;1544;48.834;9.194;2023-04-25T14:44:29;15.60;32.50
3067;DHT22;1544;48.834;9.194;2023-04-25T14:47:05;15.70;31.90
3067;DHT22;1544;48.834;9.194;2023-04-25T14:49:42;15.70;32.10
3067;DHT22;1544;48.834;9.194;2023-04-25T14:52:20;15.80;31.50
3067;DHT22;1544;48.834;9.194;2023-04-25T14:54:59;15.80;31.50
3067;DHT22;1544;48.834;9.194;2023-04-25T14:57:40;15.80;31.80
3067;DHT22;1544;48.834;9.194;2023-04-25T15:00:16;16.00;32.60
3067;DHT22;1544;48.834;9.194;2023-04-25T15:02:54;16.30;31.40
3067;DHT22;1544;48.834;9.194;2023-04-25T15:05:31;16.60;30.80
3067;DHT22;1544;48.834;9.194;2023-04-25T15:08:09;16.50;31.00
3067;DHT22;1544;48.834;9.194;2023-04-25T15:10:46;16.50;31.20
3067;DHT22;1544;48.834;9.194;2023-04-25T15:13:23;16.40;32.30
3067;DHT22;1544;48.834;9.194;2023-04-25T15:16:00;16.40;31.00
3067;DHT22;1544;48.834;9.194;2023-04-25T15:18:36;16.60;31.30
3067;DHT22;1544;48.834;9.194;2023-04-25T15:21:12;16.60;30.90
3067;DHT22;1544;48.834;9.194;2023-04-25T15:23:48;16.60;30.70
3067;DHT22;1544;48.834;9.194;2023-04-25T15:26:24;16.70;30.50
3067;DHT22;1544;48.834;9.194;2023-04-25T15:29:00;16.70;30.60
3067;DHT22;1544;48.834;9.194;2023-04-25T15:31:36;16.60;30.70
3067;DHT22;1544;48.834;9.194;2023-04-25T15:34:13;16.60;30.60
3067;DHT22;1544;48.834;9.194;2023-04-25T15:36:49;16.30;30.00
3067;DHT22;1544;48.834;9.194;2023-04-25T15:39:25;16.20;30.50
3067;DHT22;1544;48.834;9.194;2023-04-25T15:42:01;16.20;30.30
3067;DHT22;1544;48.834;9.194;2023-04-25T15:44:38;16.40;30.70
3067;DHT22;1544;48.834;9.194;2023-04-25T15:47:13;16.50;31.40
3067;DHT22;1544;48.834;9.194;2023-04-25T15:49:50;16.60;30.40
3067;DHT22;1544;48.834;9.194;2023-04-25T15:52:26;16.40;29.80
3067;DHT22;1544;48.834;9.194;2023-04-25T15:55:04;16.20;30.10
3067;DHT22;1544;48.834;9.194;2023-04-25T15:57:42;16.10;30.40
3067;DHT22;1544;48.834;9.194;2023-04-25T16:00:18;16.00;30.80
3067;DHT22;1544;48.834;9.194;2023-04-25T16:02:57;16.20;30.50
3067;DHT22;1544;48.834;9.194;2023-04-25T16:05:34;16.40;30.80
3067;DHT22;1544;48.834;9.194;2023-04-25T16:08:10;16.60;30.30
3067;DHT22;1544;48.834;9.194;2023-04-25T16:10:46;16.80;30.30
3067;DHT22;1544;48.834;9.194;2023-04-25T16:13:22;16.60;30.30
3067;DHT22;1544;48.834;9.194;2023-04-25T16:16:00;16.50;29.60
3067;DHT22;1544;48.834;9.194;2023-04-25T16:18:36;16.20;29.60
3067;DHT22;1544;48.834;9.194;2023-04-25T16:21:14;16.00;30.50
3067;DHT22;1544;48.834;9.194;2023-04-25T16:23:52;15.90;29.90
3067;DHT22;1544;48.834;9.194;2023-04-25T16:26:28;15.60;30.00
3067;DHT22;1544;48.834;9.194;2023-04-25T16:29:05;15.50;30.00
3067;DHT22;1544;48.834;9.194;2023-04-25T16:31:42;15.40;30.30
3067;DHT22;1544;48.834;9.194;2023-04-25T16:34:19;15.30;30.60
3067;DHT22;1544;48.834;9.194;2023-04-25T16:36:57;15.30;30.80
3067;DHT22;1544;48.834;9.194;2023-04-25T16:39:33;15.10;30.70
3067;DHT22;1544;48.834;9.194;2023-04-25T16:42:11;14.90;30.80
3067;DHT22;1544;48.834;9.194;2023-04-25T16:44:47;14.80;30.50
3067;DHT22;1544;48.834;9.194;2023-04-25T16:47:24;14.40;30.90
3067;DHT22;1544;48.834;9.194;2023-04-25T16:50:00;14.20;31.10
3067;DHT22;1544;48.834;9.194;2023-04-25T16:52:36;14.00;31.00
3067;DHT22;1544;48.834;9.194;2023-04-25T16:55:13;13.80;31.20
3067;DHT22;1544;48.834;9.194;2023-04-25T16:57:49;13.60;31.90
3067;DHT22;1544;48.834;9.194;2023-04-25T17:00:25;13.40;31.60
3067;DHT22;1544;48.834;9.194;2023-04-25T17:03:02;13.20;32.10
3067;DHT22;1544;48.834;9.194;2023-04-25T17:05:39;13.00;32.10
3067;DHT22;1544;48.834;9.194;2023-04-25T17:08:15;12.80;32.20
3067;DHT22;1544;48.834;9.194;2023-04-25T17:10:51;12.70;32.40
3067;DHT22;1544;48.834;9.194;2023-04-25T17:13:28;12.60;32.60
3067;DHT22;1544;48.834;9.194;2023-04-25T17:16:06;12.50;32.90
3067;DHT22;1544;48.834;9.194;2023-04-25T17:18:42;12.40;33.70
3067;DHT22;1544;48.834;9.194;2023-04-25T17:21:19;12.30;35.60
3067;DHT22;1544;48.834;9.194;2023-04-25T17:23:55;12.10;38.40